sensor_id;sensor_type;location;lat;lon;timestamp;P1;durP1;ratioP1;P2;durP2;ratioP2
11488;SDS011;5801;50.804;12.638;2022-12-07T00:01:31;8.10;;;4.93;;
11488;SDS011;5801;50.804;12.638;2022-12-07T00:03:59;10.15;;;5.30;;
11488;SDS011;5801;50.804;12.638;2022-12-07T00:06:29;9.45;;;5.38;;
11488;SDS011;5801;50.804;12.638;2022-12-07T00:08:56;9.23;;;4.78;;
11488;SDS011;5801;50.804;12.638;2022-12-07T00:11:22;7.07;;;3.85;;
11488;SDS011;5801;50.804;12.638;2022-12-07T00:13:52;6.60;;;3.72;;
11488;SDS011;5801;50.804;12.638;2022-12-07T00:16:22;8.55;;;4.57;;
11488;SDS011;5801;50.804;12.638;2022-12-07T00:18:48;7.72;;;5.25;;
11488;SDS011;5801;50.804;12.638;2022-12-07T00:21:15;7.90;;;5.10;;
11488;SDS011;5801;50.804;12.638;2022-12-07T00:23:43;12.30;;;4.97;;
11488;SDS011;5801;50.804;12.638;2022-12-07T00:26:11;13.02;;;5.68;;
11488;SDS011;5801;50.804;12.638;2022-12-07T00:28:37;8.98;;;5.13;;
11488;SDS011;5801;50.804;12.638;2022-12-07T00:31:05;8.90;;;4.75;;
11488;SDS011;5801;50.804;12.638;2022-12-07T00:33:33;7.43;;;4.65;;
11488;SDS011;5801;50.804;12.638;2022-12-07T00:35:59;8.68;;;4.20;;
11488;SDS011;5801;50.804;12.638;2022-12-07T00:38:27;8.45;;;5.03;;
11488;SDS011;5801;50.804;12.638;2022-12-07T00:40:56;7.88;;;4.97;;
11488;SDS011;5801;50.804;12.638;2022-12-07T00:43:23;5.45;;;3.90;;
11488;SDS011;5801;50.804;12.638;2022-12-07T00:45:49;8.57;;;4.72;;
11488;SDS011;5801;50.804;12.638;2022-12-07T00:48:14;9.40;;;5.33;;
11488;SDS011;5801;50.804;12.638;2022-12-07T00:50:40;6.28;;;4.15;;
11488;SDS011;5801;50.804;12.638;2022-12-07T00:53:05;10.35;;;4.88;;
11488;SDS011;5801;50.804;12.638;2022-12-07T00:55:35;7.15;;;4.22;;
11488;SDS011;5801;50.804;12.638;2022-12-07T00:58:01;7.90;;;4.55;;
11488;SDS011;5801;50.804;12.638;2022-12-07T01:00:27;7.97;;;4.78;;
11488;SDS011;5801;50.804;12.638;2022-12-07T01:02:52;6.55;;;4.65;;
11488;SDS011;5801;50.804;12.638;2022-12-07T01:05:18;8.35;;;5.18;;
11488;SDS011;5801;50.804;12.638;2022-12-07T01:07:44;11.18;;;5.38;;
11488;SDS011;5801;50.804;12.638;2022-12-07T01:10:11;8.95;;;5.20;;
11488;SDS011;5801;50.804;12.638;2022-12-07T01:12:37;5.50;;;4.15;;
11488;SDS011;5801;50.804;12.638;2022-12-07T01:15:03;11.45;;;6.05;;
11488;SDS011;5801;50.804;12.638;2022-12-07T01:17:29;7.43;;;4.95;;
11488;SDS011;5801;50.804;12.638;2022-12-07T01:19:55;9.98;;;5.78;;
11488;SDS011;5801;50.804;12.638;2022-12-07T01:22:21;7.82;;;5.57;;
11488;SDS011;5801;50.804;12.638;2022-12-07T01:24:47;9.27;;;5.80;;
11488;SDS011;5801;50.804;12.638;2022-12-07T01:27:13;10.32;;;4.45;;
11488;SDS011;5801;50.804;12.638;2022-12-07T01:29:39;10.35;;;5.38;;
11488;SDS011;5801;50.804;12.638;2022-12-07T01:32:05;9.23;;;4.93;;
11488;SDS011;5801;50.804;12.638;2022-12-07T01:34:30;7.90;;;4.88;;
11488;SDS011;5801;50.804;12.638;2022-12-07T01:36:56;7.88;;;4.35;;
11488;SDS011;5801;50.804;12.638;2022-12-07T01:39:22;6.35;;;4.25;;
11488;SDS011;5801;50.804;12.638;2022-12-07T01:41:48;6.25;;;4.28;;
11488;SDS011;5801;50.804;12.638;2022-12-07T01:46:41;4.60;;;3.80;;
11488;SDS011;5801;50.804;12.638;2022-12-07T01:49:10;6.93;;;3.55;;
11488;SDS011;5801;50.804;12.638;2022-12-07T01:51:40;5.18;;;3.83;;
11488;SDS011;5801;50.804;12.638;2022-12-07T01:54:08;9.52;;;4.22;;
11488;SDS011;5801;50.804;12.638;2022-12-07T01:56:36;5.05;;;3.55;;
11488;SDS011;5801;50.804;12.638;2022-12-07T01:59:03;5.82;;;3.95;;
11488;SDS011;5801;50.804;12.638;2022-12-07T02:01:28;8.88;;;4.35;;
11488;SDS011;5801;50.804;12.638;2022-12-07T02:03:54;8.45;;;4.20;;
11488;SDS011;5801;50.804;12.638;2022-12-07T02:06:22;4.40;;;3.33;;
11488;SDS011;5801;50.804;12.638;2022-12-07T02:08:49;5.15;;;3.42;;
11488;SDS011;5801;50.804;12.638;2022-12-07T02:11:15;8.20;;;4.35;;
11488;SDS011;5801;50.804;12.638;2022-12-07T02:13:42;5.60;;;3.60;;
11488;SDS011;5801;50.804;12.638;2022-12-07T02:30:26;6.43;;;4.45;;
11488;SDS011;5801;50.804;12.638;2022-12-07T02:32:57;6.00;;;3.80;;
11488;SDS011;5801;50.804;12.638;2022-12-07T02:35:32;5.80;;;3.20;;
11488;SDS011;5801;50.804;12.638;2022-12-07T02:38:16;7.47;;;4.50;;
11488;SDS011;5801;50.804;12.638;2022-12-07T02:40:50;6.07;;;3.85;;
11488;SDS011;5801;50.804;12.638;2022-12-07T02:43:34;4.13;;;2.58;;
11488;SDS011;5801;50.804;12.638;2022-12-07T02:46:05;6.85;;;3.00;;
11488;SDS011;5801;50.804;12.638;2022-12-07T02:48:35;5.35;;;3.15;;
11488;SDS011;5801;50.804;12.638;2022-12-07T02:51:04;6.03;;;3.05;;
11488;SDS011;5801;50.804;12.638;2022-12-07T02:53:34;4.63;;;3.13;;
11488;SDS011;5801;50.804;12.638;2022-12-07T02:56:11;2.50;;;2.22;;
11488;SDS011;5801;50.804;12.638;2022-12-07T03:04:42;5.18;;;2.45;;
11488;SDS011;5801;50.804;12.638;2022-12-07T03:12:44;4.38;;;3.08;;
11488;SDS011;5801;50.804;12.638;2022-12-07T03:15:27;5.75;;;2.85;;
11488;SDS011;5801;50.804;12.638;2022-12-07T03:18:00;4.80;;;3.38;;
11488;SDS011;5801;50.804;12.638;2022-12-07T03:20:29;4.32;;;3.15;;
11488;SDS011;5801;50.804;12.638;2022-12-07T03:22:59;4.75;;;3.33;;
11488;SDS011;5801;50.804;12.638;2022-12-07T03:25:25;3.55;;;2.30;;
11488;SDS011;5801;50.804;12.638;2022-12-07T03:27:58;6.10;;;3.00;;
11488;SDS011;5801;50.804;12.638;2022-12-07T03:30:32;3.45;;;2.83;;
11488;SDS011;5801;50.804;12.638;2022-12-07T03:33:17;5.85;;;3.22;;
11488;SDS011;5801;50.804;12.638;2022-12-07T03:41:22;2.47;;;2.03;;
11488;SDS011;5801;50.804;12.638;2022-12-07T03:43:51;2.67;;;2.42;;
11488;SDS011;5801;50.804;12.638;2022-12-07T03:52:03;10.02;;;3.03;;
11488;SDS011;5801;50.804;12.638;2022-12-07T03:57:03;4.38;;;3.10;;
11488;SDS011;5801;50.804;12.638;2022-12-07T03:59:30;8.02;;;2.97;;
11488;SDS011;5801;50.804;12.638;2022-12-07T04:01:57;1.83;;;1.55;;
11488;SDS011;5801;50.804;12.638;2022-12-07T04:04:26;7.10;;;2.10;;
11488;SDS011;5801;50.804;12.638;2022-12-07T04:06:52;8.85;;;4.57;;
11488;SDS011;5801;50.804;12.638;2022-12-07T04:09:18;9.85;;;5.25;;
11488;SDS011;5801;50.804;12.638;2022-12-07T04:11:44;9.98;;;6.38;;
11488;SDS011;5801;50.804;12.638;2022-12-07T04:14:10;13.38;;;6.40;;
11488;SDS011;5801;50.804;12.638;2022-12-07T04:16:46;10.93;;;5.88;;
11488;SDS011;5801;50.804;12.638;2022-12-07T04:19:17;9.27;;;4.90;;
11488;SDS011;5801;50.804;12.638;2022-12-07T04:21:44;12.15;;;6.55;;
11488;SDS011;5801;50.804;12.638;2022-12-07T04:24:11;10.57;;;6.07;;
11488;SDS011;5801;50.804;12.638;2022-12-07T04:26:37;6.75;;;4.35;;
11488;SDS011;5801;50.804;12.638;2022-12-07T04:29:03;6.32;;;3.40;;
11488;SDS011;5801;50.804;12.638;2022-12-07T04:31:29;5.05;;;3.20;;
11488;SDS011;5801;50.804;12.638;2022-12-07T04:33:55;4.70;;;3.13;;
11488;SDS011;5801;50.804;12.638;2022-12-07T04:36:20;6.25;;;3.28;;
11488;SDS011;5801;50.804;12.638;2022-12-07T04:38:46;5.47;;;2.83;;
11488;SDS011;5801;50.804;12.638;2022-12-07T04:41:12;4.28;;;2.85;;
11488;SDS011;5801;50.804;12.638;2022-12-07T04:43:38;4.65;;;3.08;;
11488;SDS011;5801;50.804;12.638;2022-12-07T04:46:04;3.83;;;2.25;;
11488;SDS011;5801;50.804;12.638;2022-12-07T04:48:30;2.17;;;1.98;;
11488;SDS011;5801;50.804;12.638;2022-12-07T04:50:56;2.67;;;2.30;;
11488;SDS011;5801;50.804;12.638;2022-12-07T04:53:22;5.22;;;2.63;;
11488;SDS011;5801;50.804;12.638;2022-12-07T04:55:48;3.03;;;2.20;;
11488;SDS011;5801;50.804;12.638;2022-12-07T04:58:14;5.72;;;3.17;;
11488;SDS011;5801;50.804;12.638;2022-12-07T05:00:40;5.20;;;3.40;;
11488;SDS011;5801;50.804;12.638;2022-12-07T05:03:06;4.38;;;2.88;;
11488;SDS011;5801;50.804;12.638;2022-12-07T05:05:31;2.63;;;2.00;;
11488;SDS011;5801;50.804;12.638;2022-12-07T05:07:57;3.95;;;2.53;;
11488;SDS011;5801;50.804;12.638;2022-12-07T05:10:23;2.65;;;2.17;;
11488;SDS011;5801;50.804;12.638;2022-12-07T05:12:49;2.33;;;2.08;;
11488;SDS011;5801;50.804;12.638;2022-12-07T05:15:15;2.08;;;1.73;;
11488;SDS011;5801;50.804;12.638;2022-12-07T05:17:41;3.00;;;1.77;;
11488;SDS011;5801;50.804;12.638;2022-12-07T05:20:07;2.15;;;1.95;;
11488;SDS011;5801;50.804;12.638;2022-12-07T05:22:33;1.50;;;1.40;;
11488;SDS011;5801;50.804;12.638;2022-12-07T05:24:59;2.30;;;2.10;;
11488;SDS011;5801;50.804;12.638;2022-12-07T05:27:24;3.20;;;2.78;;
11488;SDS011;5801;50.804;12.638;2022-12-07T05:29:51;3.38;;;2.30;;
11488;SDS011;5801;50.804;12.638;2022-12-07T05:32:16;5.43;;;2.60;;
11488;SDS011;5801;50.804;12.638;2022-12-07T05:34:42;3.83;;;1.65;;
11488;SDS011;5801;50.804;12.638;2022-12-07T05:37:08;2.47;;;2.03;;
11488;SDS011;5801;50.804;12.638;2022-12-07T05:39:34;2.58;;;2.38;;
11488;SDS011;5801;50.804;12.638;2022-12-07T05:42:00;2.42;;;2.03;;
11488;SDS011;5801;50.804;12.638;2022-12-07T05:44:41;3.08;;;2.78;;
11488;SDS011;5801;50.804;12.638;2022-12-07T05:47:08;2.30;;;2.05;;
11488;SDS011;5801;50.804;12.638;2022-12-07T05:49:34;4.43;;;2.47;;
11488;SDS011;5801;50.804;12.638;2022-12-07T05:52:00;4.90;;;3.17;;
11488;SDS011;5801;50.804;12.638;2022-12-07T05:54:26;3.97;;;3.10;;
11488;SDS011;5801;50.804;12.638;2022-12-07T05:56:52;3.53;;;2.58;;
11488;SDS011;5801;50.804;12.638;2022-12-07T05:59:18;5.68;;;3.45;;
11488;SDS011;5801;50.804;12.638;2022-12-07T06:01:57;3.88;;;3.03;;
11488;SDS011;5801;50.804;12.638;2022-12-07T06:04:25;4.22;;;3.00;;
11488;SDS011;5801;50.804;12.638;2022-12-07T06:06:56;5.65;;;3.25;;
11488;SDS011;5801;50.804;12.638;2022-12-07T06:09:22;4.93;;;3.15;;
11488;SDS011;5801;50.804;12.638;2022-12-07T06:11:49;4.65;;;2.83;;
11488;SDS011;5801;50.804;12.638;2022-12-07T06:14:33;5.88;;;3.90;;
11488;SDS011;5801;50.804;12.638;2022-12-07T06:16:59;2.72;;;2.42;;
11488;SDS011;5801;50.804;12.638;2022-12-07T06:19:25;4.15;;;3.15;;
11488;SDS011;5801;50.804;12.638;2022-12-07T06:21:51;4.38;;;2.78;;
11488;SDS011;5801;50.804;12.638;2022-12-07T06:24:17;4.97;;;3.03;;
11488;SDS011;5801;50.804;12.638;2022-12-07T06:26:43;7.55;;;4.72;;
11488;SDS011;5801;50.804;12.638;2022-12-07T06:29:10;5.03;;;2.65;;
11488;SDS011;5801;50.804;12.638;2022-12-07T06:31:36;7.38;;;4.43;;
11488;SDS011;5801;50.804;12.638;2022-12-07T06:34:04;5.47;;;2.92;;
11488;SDS011;5801;50.804;12.638;2022-12-07T06:36:31;3.55;;;2.50;;
11488;SDS011;5801;50.804;12.638;2022-12-07T06:38:57;5.90;;;3.33;;
11488;SDS011;5801;50.804;12.638;2022-12-07T06:41:23;3.63;;;2.78;;
11488;SDS011;5801;50.804;12.638;2022-12-07T06:43:49;5.25;;;3.60;;
11488;SDS011;5801;50.804;12.638;2022-12-07T06:46:15;5.53;;;2.92;;
11488;SDS011;5801;50.804;12.638;2022-12-07T06:48:41;5.82;;;3.67;;
11488;SDS011;5801;50.804;12.638;2022-12-07T06:51:07;9.43;;;3.53;;
11488;SDS011;5801;50.804;12.638;2022-12-07T06:53:34;3.20;;;2.67;;
11488;SDS011;5801;50.804;12.638;2022-12-07T06:56:00;3.75;;;2.80;;
11488;SDS011;5801;50.804;12.638;2022-12-07T06:58:26;4.68;;;3.30;;
11488;SDS011;5801;50.804;12.638;2022-12-07T07:00:51;3.95;;;3.05;;
11488;SDS011;5801;50.804;12.638;2022-12-07T07:03:17;3.75;;;3.17;;
11488;SDS011;5801;50.804;12.638;2022-12-07T07:05:43;6.55;;;3.08;;
11488;SDS011;5801;50.804;12.638;2022-12-07T07:08:09;5.45;;;3.65;;
11488;SDS011;5801;50.804;12.638;2022-12-07T07:10:35;4.90;;;3.28;;
11488;SDS011;5801;50.804;12.638;2022-12-07T07:13:02;6.80;;;3.40;;
11488;SDS011;5801;50.804;12.638;2022-12-07T07:15:28;5.38;;;3.22;;
11488;SDS011;5801;50.804;12.638;2022-12-07T07:17:54;5.00;;;3.40;;
11488;SDS011;5801;50.804;12.638;2022-12-07T07:20:20;4.15;;;2.95;;
11488;SDS011;5801;50.804;12.638;2022-12-07T07:22:46;4.45;;;2.95;;
11488;SDS011;5801;50.804;12.638;2022-12-07T07:25:12;4.32;;;2.95;;
11488;SDS011;5801;50.804;12.638;2022-12-07T07:27:38;4.57;;;3.40;;
11488;SDS011;5801;50.804;12.638;2022-12-07T07:30:03;6.40;;;3.35;;
11488;SDS011;5801;50.804;12.638;2022-12-07T07:32:29;5.45;;;3.55;;
11488;SDS011;5801;50.804;12.638;2022-12-07T07:34:55;6.47;;;3.67;;
11488;SDS011;5801;50.804;12.638;2022-12-07T07:37:21;4.72;;;3.30;;
11488;SDS011;5801;50.804;12.638;2022-12-07T07:39:47;4.90;;;2.90;;
11488;SDS011;5801;50.804;12.638;2022-12-07T07:42:14;7.25;;;4.45;;
11488;SDS011;5801;50.804;12.638;2022-12-07T07:44:40;4.63;;;3.63;;
11488;SDS011;5801;50.804;12.638;2022-12-07T07:47:06;5.10;;;3.10;;
11488;SDS011;5801;50.804;12.638;2022-12-07T07:49:31;5.68;;;3.28;;
11488;SDS011;5801;50.804;12.638;2022-12-07T07:51:57;7.57;;;4.20;;
11488;SDS011;5801;50.804;12.638;2022-12-07T07:54:23;8.55;;;3.45;;
11488;SDS011;5801;50.804;12.638;2022-12-07T07:56:48;5.43;;;2.88;;
11488;SDS011;5801;50.804;12.638;2022-12-07T07:59:15;5.95;;;3.85;;
11488;SDS011;5801;50.804;12.638;2022-12-07T08:01:40;7.18;;;5.20;;
11488;SDS011;5801;50.804;12.638;2022-12-07T08:04:06;3.80;;;2.60;;
11488;SDS011;5801;50.804;12.638;2022-12-07T08:06:32;3.83;;;3.20;;
11488;SDS011;5801;50.804;12.638;2022-12-07T08:08:58;3.55;;;2.60;;
11488;SDS011;5801;50.804;12.638;2022-12-07T08:11:24;5.90;;;3.83;;
11488;SDS011;5801;50.804;12.638;2022-12-07T08:13:50;6.18;;;3.85;;
11488;SDS011;5801;50.804;12.638;2022-12-07T08:16:16;4.72;;;3.70;;
11488;SDS011;5801;50.804;12.638;2022-12-07T08:18:42;5.82;;;4.00;;
11488;SDS011;5801;50.804;12.638;2022-12-07T08:21:09;6.07;;;3.55;;
11488;SDS011;5801;50.804;12.638;2022-12-07T08:23:37;4.72;;;3.10;;
11488;SDS011;5801;50.804;12.638;2022-12-07T08:26:04;5.28;;;3.22;;
11488;SDS011;5801;50.804;12.638;2022-12-07T08:28:37;4.50;;;3.15;;
11488;SDS011;5801;50.804;12.638;2022-12-07T08:31:11;7.13;;;3.30;;
11488;SDS011;5801;50.804;12.638;2022-12-07T08:33:38;5.55;;;3.45;;
11488;SDS011;5801;50.804;12.638;2022-12-07T08:36:06;5.63;;;3.42;;
11488;SDS011;5801;50.804;12.638;2022-12-07T08:38:34;6.25;;;2.95;;
11488;SDS011;5801;50.804;12.638;2022-12-07T08:41:00;4.93;;;3.55;;
11488;SDS011;5801;50.804;12.638;2022-12-07T08:43:26;8.25;;;3.85;;
11488;SDS011;5801;50.804;12.638;2022-12-07T08:46:04;6.35;;;3.60;;
11488;SDS011;5801;50.804;12.638;2022-12-07T08:48:31;6.50;;;3.05;;
11488;SDS011;5801;50.804;12.638;2022-12-07T08:50:58;4.65;;;2.72;;
11488;SDS011;5801;50.804;12.638;2022-12-07T08:53:25;4.38;;;2.97;;
11488;SDS011;5801;50.804;12.638;2022-12-07T08:55:51;4.47;;;3.33;;
11488;SDS011;5801;50.804;12.638;2022-12-07T08:58:17;3.50;;;2.63;;
11488;SDS011;5801;50.804;12.638;2022-12-07T09:00:43;5.10;;;3.40;;
11488;SDS011;5801;50.804;12.638;2022-12-07T09:03:09;3.75;;;2.47;;
11488;SDS011;5801;50.804;12.638;2022-12-07T09:05:35;4.82;;;3.58;;
11488;SDS011;5801;50.804;12.638;2022-12-07T09:08:01;5.80;;;3.13;;
11488;SDS011;5801;50.804;12.638;2022-12-07T09:10:27;4.38;;;3.40;;
11488;SDS011;5801;50.804;12.638;2022-12-07T09:12:54;6.28;;;3.67;;
11488;SDS011;5801;50.804;12.638;2022-12-07T09:15:19;5.53;;;3.05;;
11488;SDS011;5801;50.804;12.638;2022-12-07T09:17:45;4.82;;;2.80;;
11488;SDS011;5801;50.804;12.638;2022-12-07T09:20:11;7.28;;;3.65;;
11488;SDS011;5801;50.804;12.638;2022-12-07T09:22:37;8.25;;;4.13;;
11488;SDS011;5801;50.804;12.638;2022-12-07T09:25:03;3.40;;;3.05;;
11488;SDS011;5801;50.804;12.638;2022-12-07T09:27:30;3.70;;;2.58;;
11488;SDS011;5801;50.804;12.638;2022-12-07T09:29:56;3.78;;;2.85;;
11488;SDS011;5801;50.804;12.638;2022-12-07T09:32:22;3.15;;;2.53;;
11488;SDS011;5801;50.804;12.638;2022-12-07T09:34:48;6.43;;;2.78;;
11488;SDS011;5801;50.804;12.638;2022-12-07T09:37:13;7.38;;;3.58;;
11488;SDS011;5801;50.804;12.638;2022-12-07T09:39:39;3.80;;;2.70;;
11488;SDS011;5801;50.804;12.638;2022-12-07T09:42:05;4.78;;;3.10;;
11488;SDS011;5801;50.804;12.638;2022-12-07T09:44:33;7.40;;;3.45;;
11488;SDS011;5801;50.804;12.638;2022-12-07T09:47:00;4.05;;;2.72;;
11488;SDS011;5801;50.804;12.638;2022-12-07T09:49:27;4.45;;;2.47;;
11488;SDS011;5801;50.804;12.638;2022-12-07T09:51:59;3.88;;;3.08;;
11488;SDS011;5801;50.804;12.638;2022-12-07T09:54:27;5.97;;;3.30;;
11488;SDS011;5801;50.804;12.638;2022-12-07T09:56:55;5.25;;;3.85;;
11488;SDS011;5801;50.804;12.638;2022-12-07T09:59:20;6.38;;;3.30;;
11488;SDS011;5801;50.804;12.638;2022-12-07T10:01:48;6.20;;;2.85;;
11488;SDS011;5801;50.804;12.638;2022-12-07T10:04:26;4.43;;;3.10;;
11488;SDS011;5801;50.804;12.638;2022-12-07T10:06:54;4.35;;;2.85;;
11488;SDS011;5801;50.804;12.638;2022-12-07T10:09:21;3.13;;;2.70;;
11488;SDS011;5801;50.804;12.638;2022-12-07T10:12:06;5.65;;;2.95;;
11488;SDS011;5801;50.804;12.638;2022-12-07T10:14:35;3.55;;;2.50;;
11488;SDS011;5801;50.804;12.638;2022-12-07T10:17:20;4.20;;;2.75;;
11488;SDS011;5801;50.804;12.638;2022-12-07T10:20:07;4.28;;;2.83;;
11488;SDS011;5801;50.804;12.638;2022-12-07T10:22:38;3.95;;;2.75;;
11488;SDS011;5801;50.804;12.638;2022-12-07T10:25:24;4.28;;;2.53;;
11488;SDS011;5801;50.804;12.638;2022-12-07T10:28:10;2.92;;;2.47;;
11488;SDS011;5801;50.804;12.638;2022-12-07T10:30:48;4.72;;;2.72;;
11488;SDS011;5801;50.804;12.638;2022-12-07T10:33:28;6.95;;;2.60;;
11488;SDS011;5801;50.804;12.638;2022-12-07T10:35:57;5.70;;;1.85;;
11488;SDS011;5801;50.804;12.638;2022-12-07T10:38:24;3.38;;;2.83;;
11488;SDS011;5801;50.804;12.638;2022-12-07T10:41:02;5.25;;;2.35;;
11488;SDS011;5801;50.804;12.638;2022-12-07T10:43:32;9.07;;;2.75;;
11488;SDS011;5801;50.804;12.638;2022-12-07T10:53:39;3.22;;;1.95;;
11488;SDS011;5801;50.804;12.638;2022-12-07T10:58:44;4.72;;;2.28;;
11488;SDS011;5801;50.804;12.638;2022-12-07T11:02:18;3.55;;;2.47;;
11488;SDS011;5801;50.804;12.638;2022-12-07T11:04:58;3.40;;;2.10;;
11488;SDS011;5801;50.804;12.638;2022-12-07T11:07:49;3.17;;;2.38;;
11488;SDS011;5801;50.804;12.638;2022-12-07T11:13:12;2.50;;;1.85;;
11488;SDS011;5801;50.804;12.638;2022-12-07T11:28:54;6.70;;;2.72;;
11488;SDS011;5801;50.804;12.638;2022-12-07T11:37:29;1.73;;;1.30;;
11488;SDS011;5801;50.804;12.638;2022-12-07T11:40:05;4.00;;;2.05;;
11488;SDS011;5801;50.804;12.638;2022-12-07T11:42:39;3.30;;;2.03;;
11488;SDS011;5801;50.804;12.638;2022-12-07T11:48:06;2.65;;;2.03;;
11488;SDS011;5801;50.804;12.638;2022-12-07T11:50:40;5.25;;;1.70;;
11488;SDS011;5801;50.804;12.638;2022-12-07T11:58:23;2.47;;;1.60;;
11488;SDS011;5801;50.804;12.638;2022-12-07T12:01:14;2.40;;;2.00;;
11488;SDS011;5801;50.804;12.638;2022-12-07T12:06:33;1.60;;;1.50;;
11488;SDS011;5801;50.804;12.638;2022-12-07T12:14:38;5.57;;;1.70;;
11488;SDS011;5801;50.804;12.638;2022-12-07T12:23:01;1.70;;;1.60;;
11488;SDS011;5801;50.804;12.638;2022-12-07T12:25:38;1.70;;;1.23;;
11488;SDS011;5801;50.804;12.638;2022-12-07T12:28:04;2.20;;;1.65;;
11488;SDS011;5801;50.804;12.638;2022-12-07T12:30:37;2.33;;;1.48;;
11488;SDS011;5801;50.804;12.638;2022-12-07T12:33:22;1.40;;;1.30;;
11488;SDS011;5801;50.804;12.638;2022-12-07T12:47:37;2.13;;;1.88;;
11488;SDS011;5801;50.804;12.638;2022-12-07T12:50:18;1.70;;;1.23;;
11488;SDS011;5801;50.804;12.638;2022-12-07T12:52:48;1.52;;;1.13;;
11488;SDS011;5801;50.804;12.638;2022-12-07T12:55:17;1.90;;;1.02;;
11488;SDS011;5801;50.804;12.638;2022-12-07T12:57:46;2.17;;;1.30;;
11488;SDS011;5801;50.804;12.638;2022-12-07T13:00:32;1.40;;;1.13;;
11488;SDS011;5801;50.804;12.638;2022-12-07T13:02:59;1.02;;;1.00;;
11488;SDS011;5801;50.804;12.638;2022-12-07T13:05:25;2.85;;;1.40;;
11488;SDS011;5801;50.804;12.638;2022-12-07T13:07:57;1.80;;;1.45;;
11488;SDS011;5801;50.804;12.638;2022-12-07T13:13:01;2.50;;;1.83;;
11488;SDS011;5801;50.804;12.638;2022-12-07T13:29:14;2.40;;;1.50;;
11488;SDS011;5801;50.804;12.638;2022-12-07T13:31:56;5.80;;;1.17;;
11488;SDS011;5801;50.804;12.638;2022-12-07T13:34:33;1.08;;;1.05;;
11488;SDS011;5801;50.804;12.638;2022-12-07T13:37:00;1.30;;;1.20;;
11488;SDS011;5801;50.804;12.638;2022-12-07T13:39:44;2.15;;;1.52;;
11488;SDS011;5801;50.804;12.638;2022-12-07T13:42:18;1.13;;;1.02;;
11488;SDS011;5801;50.804;12.638;2022-12-07T13:44:51;2.92;;;1.20;;
11488;SDS011;5801;50.804;12.638;2022-12-07T13:47:30;3.05;;;1.73;;
11488;SDS011;5801;50.804;12.638;2022-12-07T13:50:01;1.58;;;1.25;;
11488;SDS011;5801;50.804;12.638;2022-12-07T13:52:28;1.80;;;1.33;;
11488;SDS011;5801;50.804;12.638;2022-12-07T13:54:59;1.60;;;0.98;;
11488;SDS011;5801;50.804;12.638;2022-12-07T13:57:29;1.83;;;1.20;;
11488;SDS011;5801;50.804;12.638;2022-12-07T13:59:57;1.10;;;0.90;;
11488;SDS011;5801;50.804;12.638;2022-12-07T14:02:25;1.25;;;1.02;;
11488;SDS011;5801;50.804;12.638;2022-12-07T14:08:00;2.35;;;1.35;;
11488;SDS011;5801;50.804;12.638;2022-12-07T14:10:33;1.85;;;1.17;;
11488;SDS011;5801;50.804;12.638;2022-12-07T14:13:00;1.15;;;0.98;;
11488;SDS011;5801;50.804;12.638;2022-12-07T14:15:32;1.55;;;1.25;;
11488;SDS011;5801;50.804;12.638;2022-12-07T14:17:59;0.90;;;0.90;;
11488;SDS011;5801;50.804;12.638;2022-12-07T14:22:58;1.30;;;1.20;;
11488;SDS011;5801;50.804;12.638;2022-12-07T14:25:27;2.03;;;1.02;;
11488;SDS011;5801;50.804;12.638;2022-12-07T14:27:57;1.05;;;0.95;;
11488;SDS011;5801;50.804;12.638;2022-12-07T14:30:25;1.00;;;1.00;;
11488;SDS011;5801;50.804;12.638;2022-12-07T14:32:59;0.77;;;0.77;;
11488;SDS011;5801;50.804;12.638;2022-12-07T14:35:27;2.20;;;0.90;;
11488;SDS011;5801;50.804;12.638;2022-12-07T14:37:53;1.83;;;1.08;;
11488;SDS011;5801;50.804;12.638;2022-12-07T14:42:45;1.92;;;1.23;;
11488;SDS011;5801;50.804;12.638;2022-12-07T14:45:16;3.05;;;1.25;;
11488;SDS011;5801;50.804;12.638;2022-12-07T14:47:44;1.92;;;1.20;;
11488;SDS011;5801;50.804;12.638;2022-12-07T14:50:14;5.80;;;1.08;;
11488;SDS011;5801;50.804;12.638;2022-12-07T14:52:43;4.30;;;1.00;;
11488;SDS011;5801;50.804;12.638;2022-12-07T14:55:24;2.60;;;1.25;;
11488;SDS011;5801;50.804;12.638;2022-12-07T14:57:49;1.38;;;0.77;;
11488;SDS011;5801;50.804;12.638;2022-12-07T15:00:16;1.67;;;1.33;;
11488;SDS011;5801;50.804;12.638;2022-12-07T15:02:43;1.20;;;1.10;;
11488;SDS011;5801;50.804;12.638;2022-12-07T15:05:09;3.03;;;1.30;;
11488;SDS011;5801;50.804;12.638;2022-12-07T15:07:36;3.35;;;1.85;;
11488;SDS011;5801;50.804;12.638;2022-12-07T15:10:01;1.15;;;1.08;;
11488;SDS011;5801;50.804;12.638;2022-12-07T15:12:27;3.72;;;1.17;;
11488;SDS011;5801;50.804;12.638;2022-12-07T15:14:53;3.63;;;1.35;;
11488;SDS011;5801;50.804;12.638;2022-12-07T15:17:19;1.20;;;1.10;;
11488;SDS011;5801;50.804;12.638;2022-12-07T15:19:45;2.50;;;1.60;;
11488;SDS011;5801;50.804;12.638;2022-12-07T15:22:11;2.50;;;1.15;;
11488;SDS011;5801;50.804;12.638;2022-12-07T15:24:37;1.58;;;0.90;;
11488;SDS011;5801;50.804;12.638;2022-12-07T15:27:03;1.58;;;1.00;;
11488;SDS011;5801;50.804;12.638;2022-12-07T15:29:29;0.98;;;0.98;;
11488;SDS011;5801;50.804;12.638;2022-12-07T15:31:55;1.10;;;1.10;;
11488;SDS011;5801;50.804;12.638;2022-12-07T15:34:21;3.47;;;1.60;;
11488;SDS011;5801;50.804;12.638;2022-12-07T15:36:47;1.20;;;0.90;;
11488;SDS011;5801;50.804;12.638;2022-12-07T15:39:13;1.10;;;1.00;;
11488;SDS011;5801;50.804;12.638;2022-12-07T15:41:39;3.70;;;1.35;;
11488;SDS011;5801;50.804;12.638;2022-12-07T15:44:05;0.80;;;0.80;;
11488;SDS011;5801;50.804;12.638;2022-12-07T15:46:50;1.48;;;1.00;;
11488;SDS011;5801;50.804;12.638;2022-12-07T15:49:17;1.50;;;1.08;;
11488;SDS011;5801;50.804;12.638;2022-12-07T15:51:44;1.67;;;1.17;;
11488;SDS011;5801;50.804;12.638;2022-12-07T15:54:15;2.03;;;1.10;;
11488;SDS011;5801;50.804;12.638;2022-12-07T15:56:45;1.20;;;1.10;;
11488;SDS011;5801;50.804;12.638;2022-12-07T15:59:11;1.63;;;1.20;;
11488;SDS011;5801;50.804;12.638;2022-12-07T16:01:37;1.35;;;1.08;;
11488;SDS011;5801;50.804;12.638;2022-12-07T16:04:03;1.10;;;1.00;;
11488;SDS011;5801;50.804;12.638;2022-12-07T16:06:29;1.20;;;1.10;;
11488;SDS011;5801;50.804;12.638;2022-12-07T16:08:55;4.20;;;1.63;;
11488;SDS011;5801;50.804;12.638;2022-12-07T16:11:21;4.75;;;1.30;;
11488;SDS011;5801;50.804;12.638;2022-12-07T16:13:47;3.67;;;1.58;;
11488;SDS011;5801;50.804;12.638;2022-12-07T16:16:14;1.77;;;1.42;;
11488;SDS011;5801;50.804;12.638;2022-12-07T16:18:44;0.70;;;0.70;;
11488;SDS011;5801;50.804;12.638;2022-12-07T16:21:12;1.35;;;1.10;;
11488;SDS011;5801;50.804;12.638;2022-12-07T16:23:38;2.28;;;1.25;;
11488;SDS011;5801;50.804;12.638;2022-12-07T16:26:05;3.50;;;1.63;;
11488;SDS011;5801;50.804;12.638;2022-12-07T16:28:31;1.42;;;1.33;;
11488;SDS011;5801;50.804;12.638;2022-12-07T16:31:03;1.90;;;1.23;;
11488;SDS011;5801;50.804;12.638;2022-12-07T16:33:30;1.13;;;1.02;;
11488;SDS011;5801;50.804;12.638;2022-12-07T16:35:56;1.17;;;1.02;;
11488;SDS011;5801;50.804;12.638;2022-12-07T16:38:23;0.82;;;0.82;;
11488;SDS011;5801;50.804;12.638;2022-12-07T16:40:49;2.42;;;1.08;;
11488;SDS011;5801;50.804;12.638;2022-12-07T16:43:15;1.75;;;1.30;;
11488;SDS011;5801;50.804;12.638;2022-12-07T16:45:41;1.48;;;1.23;;
11488;SDS011;5801;50.804;12.638;2022-12-07T16:48:07;4.38;;;1.45;;
11488;SDS011;5801;50.804;12.638;2022-12-07T16:50:33;2.80;;;1.20;;
11488;SDS011;5801;50.804;12.638;2022-12-07T16:52:59;2.22;;;0.90;;
11488;SDS011;5801;50.804;12.638;2022-12-07T16:55:25;1.45;;;1.10;;
11488;SDS011;5801;50.804;12.638;2022-12-07T16:57:50;1.35;;;1.20;;
11488;SDS011;5801;50.804;12.638;2022-12-07T17:00:16;1.40;;;1.30;;
11488;SDS011;5801;50.804;12.638;2022-12-07T17:02:42;12.68;;;1.25;;
11488;SDS011;5801;50.804;12.638;2022-12-07T17:05:08;1.15;;;1.02;;
11488;SDS011;5801;50.804;12.638;2022-12-07T17:07:34;0.90;;;0.90;;
11488;SDS011;5801;50.804;12.638;2022-12-07T17:10:00;0.70;;;0.70;;